YUL weather

Montreal / Pierre Elliott Trudeau International Airport
Montréal, Quebec, Canada

Public forecast

Using degrees Celsius for public forecast. Weather courtesy of forecast.io.

METAR (pilot weather report)

Retrieved 2018/02/18 23:00 UTC (51 minutes ago):

CYUL 182300Z 24005KT 15SM FEW060 FEW080 FEW240 M01/M08 A3035 RMK SC1AC1CI1 SC TR AC TR CI TR PRESRR SLP282

TAF (pilot weather forecast)

Retrieved 2018/02/18 21:42 UTC (2 hours ago):

TAF CYUL 182038Z 1821/1918 25009G19KT P6SM SCT080 SCT240 TEMPO 1821/1824 FEW040 BKN060 FM190000 22010KT P6SM SCT060 FM190600 18010KT P6SM BKN140 BECMG 1907/1909 14010KT FM191200 12004KT WS015/20029KT P6SM FEW160 FM191500 15009KT WS015/20028KT P6SM BKN310 RMK NXT FCST BY 190000Z